createdAt,value
2022-09-28T00:01:29.563Z,8.94
2022-09-28T00:04:40.050Z,8.88
2022-09-28T00:07:54.338Z,8.80
2022-09-28T00:10:58.540Z,8.84
2022-09-28T00:14:06.021Z,8.89
2022-09-28T00:17:10.967Z,8.87
2022-09-28T00:20:14.289Z,8.90
2022-09-28T00:23:18.005Z,8.90
2022-09-28T00:26:31.587Z,8.92
2022-09-28T00:29:38.251Z,8.98
2022-09-28T00:32:40.484Z,8.98
2022-09-28T00:35:44.980Z,8.98
2022-09-28T00:38:50.600Z,8.93
2022-09-28T00:41:53.419Z,8.94
2022-09-28T00:44:58.171Z,9.01
2022-09-28T00:48:01.174Z,9.00
2022-09-28T00:51:08.743Z,8.91
2022-09-28T00:54:17.755Z,9.04
2022-09-28T00:57:25.150Z,9.01
2022-09-28T01:00:37.349Z,8.94
2022-09-28T01:03:51.114Z,8.98
2022-09-28T01:06:54.155Z,9.01
2022-09-28T01:09:57.281Z,9.08
2022-09-28T01:13:02.136Z,8.91
2022-09-28T01:16:15.365Z,8.95
2022-09-28T01:19:20.406Z,8.93
2022-09-28T01:22:43.160Z,8.93
2022-09-28T01:25:47.220Z,8.90
2022-09-28T01:28:55.011Z,8.99
2022-09-28T01:32:02.557Z,8.99
2022-09-28T01:35:28.439Z,9.02
2022-09-28T01:38:39.750Z,9.07
2022-09-28T01:41:50.415Z,9.08
2022-09-28T01:44:58.885Z,9.10
2022-09-28T01:48:09.245Z,9.10
2022-09-28T01:51:19.372Z,8.92
2022-09-28T01:54:27.877Z,8.92
2022-09-28T01:57:55.798Z,8.94
2022-09-28T02:01:10.259Z,8.87
2022-09-28T02:04:21.330Z,8.79
2022-09-28T02:07:30.609Z,8.86
2022-09-28T02:10:39.356Z,8.95
2022-09-28T02:13:52.123Z,8.99
2022-09-28T02:17:07.504Z,8.89
2022-09-28T02:20:13.976Z,9.01
2022-09-28T02:23:24.177Z,9.02
2022-09-28T02:26:32.776Z,8.98
2022-09-28T02:29:41.786Z,9.00
2022-09-28T02:32:51.328Z,9.04
2022-09-28T02:35:54.428Z,8.97
2022-09-28T02:39:02.547Z,8.98
2022-09-28T02:42:05.318Z,9.22
2022-09-28T02:45:17.099Z,9.20
2022-09-28T02:48:55.796Z,9.22
2022-09-28T02:52:31.316Z,9.22
2022-09-28T02:55:37.013Z,9.13
2022-09-28T02:58:48.549Z,9.16
2022-09-28T03:02:19.002Z,9.10
2022-09-28T03:05:25.806Z,9.02
2022-09-28T03:08:58.648Z,9.17
2022-09-28T03:12:05.742Z,9.14
2022-09-28T03:15:17.002Z,9.11
2022-09-28T03:18:36.263Z,9.15
2022-09-28T03:21:41.211Z,9.11
2022-09-28T03:24:48.696Z,9.13
2022-09-28T03:28:02.965Z,9.09
2022-09-28T03:31:14.997Z,9.13
2022-09-28T03:34:23.605Z,9.10
2022-09-28T03:37:43.099Z,9.15
2022-09-28T03:41:01.028Z,9.14
2022-09-28T03:44:15.334Z,9.15
2022-09-28T03:51:10.137Z,9.15
2022-09-28T03:54:25.664Z,9.14
2022-09-28T03:57:31.316Z,9.06
2022-09-28T04:00:34.881Z,9.02
2022-09-28T04:03:39.418Z,9.01
2022-09-28T04:06:50.905Z,9.15
2022-09-28T04:09:58.678Z,8.99
2022-09-28T04:13:01.154Z,9.04
2022-09-28T04:16:06.224Z,8.94
2022-09-28T04:19:20.246Z,9.05
2022-09-28T04:22:26.428Z,8.95
2022-09-28T04:25:36.985Z,8.98
2022-09-28T04:29:08.343Z,8.91
2022-09-28T04:32:20.389Z,8.74
2022-09-28T04:35:29.199Z,8.72
2022-09-28T04:38:55.503Z,8.88
2022-09-28T04:42:05.466Z,8.95
2022-09-28T04:45:20.226Z,9.13
2022-09-28T04:48:31.614Z,8.98
2022-09-28T04:51:34.130Z,9.02
2022-09-28T04:54:36.605Z,8.80
2022-09-28T04:57:43.453Z,8.74
2022-09-28T05:00:45.967Z,8.74
2022-09-28T05:03:58.495Z,8.57
2022-09-28T05:07:06.023Z,8.58
2022-09-28T05:10:10.812Z,8.64
2022-09-28T05:13:18.837Z,8.58
2022-09-28T05:16:21.727Z,8.65
2022-09-28T05:19:34.060Z,8.59
2022-09-28T05:22:38.167Z,8.56
2022-09-28T05:25:40.374Z,8.49
2022-09-28T05:28:45.141Z,8.54
2022-09-28T05:31:53.735Z,8.52
2022-09-28T05:35:05.233Z,8.57
2022-09-28T05:38:12.509Z,8.58
2022-09-28T05:41:17.766Z,8.58
2022-09-28T05:44:21.042Z,8.70
2022-09-28T05:47:23.312Z,8.86
2022-09-28T05:50:30.207Z,8.98
2022-09-28T05:53:44.182Z,9.07
2022-09-28T05:56:50.887Z,9.08
2022-09-28T05:59:59.024Z,9.25
2022-09-28T06:03:10.232Z,9.44
2022-09-28T06:06:14.858Z,10.18
2022-09-28T06:09:25.930Z,10.90
2022-09-28T06:12:37.641Z,10.89
2022-09-28T06:15:53.792Z,10.61
2022-09-28T06:19:17.730Z,10.35
2022-09-28T06:22:24.366Z,10.33
2022-09-28T06:25:34.639Z,10.39
2022-09-28T06:28:49.157Z,10.43
2022-09-28T06:31:53.031Z,10.53
2022-09-28T06:34:57.323Z,10.75
2022-09-28T06:38:03.735Z,10.77
2022-09-28T06:41:14.698Z,10.90
2022-09-28T06:44:19.271Z,11.09
2022-09-28T06:47:25.400Z,11.63
2022-09-28T06:50:34.953Z,11.99
2022-09-28T06:53:41.709Z,12.01
2022-09-28T07:00:03.474Z,12.01
2022-09-28T07:03:16.099Z,12.02
2022-09-28T07:06:29.086Z,12.24
2022-09-28T07:09:34.427Z,12.50
2022-09-28T07:12:39.298Z,12.42
2022-09-28T07:15:45.862Z,12.57
2022-09-28T07:18:54.520Z,12.62
2022-09-28T07:22:05.558Z,12.73
2022-09-28T07:25:09.427Z,12.90
2022-09-28T07:28:21.759Z,13.14
2022-09-28T07:31:25.881Z,13.15
2022-09-28T07:34:28.463Z,13.38
2022-09-28T07:37:39.259Z,13.70
2022-09-28T07:41:10.868Z,13.83
2022-09-28T07:44:16.975Z,13.91
2022-09-28T07:47:30.853Z,14.05
2022-09-28T07:50:36.604Z,14.20
2022-09-28T07:53:39.022Z,14.19
2022-09-28T07:56:41.747Z,14.22
2022-09-28T07:59:45.632Z,14.36
2022-09-28T08:02:52.031Z,14.47
2022-09-28T08:06:00.668Z,14.52
2022-09-28T08:09:04.069Z,14.51
2022-09-28T08:12:06.964Z,14.68
2022-09-28T08:15:13.787Z,14.73
2022-09-28T08:18:16.234Z,14.92
2022-09-28T08:21:37.322Z,15.14
2022-09-28T08:24:44.144Z,15.02
2022-09-28T08:27:48.813Z,15.06
2022-09-28T08:30:51.469Z,14.97
2022-09-28T08:33:53.927Z,15.00
2022-09-28T08:37:06.329Z,15.09
2022-09-28T08:40:16.575Z,15.06
2022-09-28T08:43:39.389Z,15.07
2022-09-28T08:46:53.966Z,15.05
2022-09-28T08:49:58.268Z,15.02
2022-09-28T08:53:09.090Z,14.96
2022-09-28T08:56:15.149Z,15.21
2022-09-28T08:59:20.174Z,15.28
2022-09-28T09:02:22.631Z,15.38
2022-09-28T09:05:36.388Z,15.43
2022-09-28T09:08:51.490Z,15.42
2022-09-28T09:11:57.743Z,15.61
2022-09-28T09:15:26.053Z,15.69
2022-09-28T09:18:43.154Z,15.77
2022-09-28T09:21:56.645Z,15.68
2022-09-28T09:25:19.470Z,15.67
2022-09-28T09:28:32.452Z,15.64
2022-09-28T09:31:44.780Z,15.79
2022-09-28T09:35:06.340Z,15.82
2022-09-28T09:38:12.885Z,15.96
2022-09-28T09:41:25.416Z,15.93
2022-09-28T09:44:33.798Z,16.10
2022-09-28T09:47:49.602Z,16.31
2022-09-28T09:50:54.523Z,16.40
2022-09-28T09:54:04.390Z,16.55
2022-09-28T09:57:13.932Z,16.81
2022-09-28T10:00:18.786Z,16.94
2022-09-28T10:03:24.346Z,16.80
2022-09-28T10:06:37.047Z,16.66
2022-09-28T10:09:43.973Z,16.65
2022-09-28T10:12:47.686Z,16.63
2022-09-28T10:15:54.221Z,16.45
2022-09-28T10:19:04.566Z,16.11
2022-09-28T10:22:10.279Z,16.05
2022-09-28T10:25:13.450Z,16.19
2022-09-28T10:28:20.944Z,16.27
2022-09-28T10:31:46.739Z,16.41
2022-09-28T10:34:51.023Z,16.54
2022-09-28T10:38:06.689Z,16.74
2022-09-28T10:41:13.619Z,16.68
2022-09-28T10:44:18.315Z,16.42
2022-09-28T10:47:24.117Z,16.51
2022-09-28T10:50:32.527Z,16.19
2022-09-28T10:53:37.778Z,16.35
2022-09-28T10:56:40.648Z,16.44
2022-09-28T10:59:42.866Z,16.37
2022-09-28T11:02:48.352Z,16.20
2022-09-28T11:05:54.921Z,16.02
2022-09-28T11:08:59.987Z,16.08
2022-09-28T11:12:06.445Z,16.06
2022-09-28T11:15:18.298Z,16.22
2022-09-28T11:18:32.414Z,16.36
2022-09-28T11:21:42.952Z,16.40
2022-09-28T11:24:49.277Z,16.48
2022-09-28T11:27:51.881Z,16.99
2022-09-28T11:30:55.797Z,17.13
2022-09-28T11:34:03.279Z,17.12
2022-09-28T11:37:26.783Z,17.36
2022-09-28T11:40:33.705Z,17.50
2022-09-28T11:43:52.311Z,17.70
2022-09-28T11:47:09.592Z,17.69
2022-09-28T11:50:31.127Z,17.76
2022-09-28T11:53:44.660Z,18.07
2022-09-28T11:56:51.929Z,18.12
2022-09-28T12:00:23.264Z,18.06
2022-09-28T12:03:43.429Z,17.79
2022-09-28T12:06:55.023Z,17.51
2022-09-28T12:10:12.831Z,17.56
2022-09-28T12:13:29.440Z,17.68
2022-09-28T12:20:30.919Z,17.68
2022-09-28T12:23:41.924Z,17.69
2022-09-28T12:27:02.892Z,17.37
2022-09-28T12:30:20.319Z,17.01
2022-09-28T12:33:22.921Z,16.77
2022-09-28T12:36:40.552Z,16.74
2022-09-28T12:39:58.061Z,16.59
2022-09-28T12:43:01.739Z,16.85
2022-09-28T12:46:13.822Z,17.03
2022-09-28T12:50:36.189Z,17.13
2022-09-28T12:53:14.372Z,16.88
2022-09-28T12:56:22.913Z,16.68
2022-09-28T12:59:30.904Z,16.69
2022-09-28T13:02:33.570Z,16.75
2022-09-28T13:06:06.152Z,16.70
2022-09-28T13:09:08.297Z,16.55
2022-09-28T13:12:18.493Z,16.60
2022-09-28T13:15:33.044Z,16.77
2022-09-28T13:18:42.594Z,16.79
2022-09-28T13:21:48.278Z,17.03
2022-09-28T13:24:53.609Z,17.32
2022-09-28T13:28:01.501Z,17.29
2022-09-28T13:31:05.312Z,17.25
2022-09-28T13:34:11.430Z,17.03
2022-09-28T13:37:24.329Z,16.80
2022-09-28T13:40:46.551Z,16.74
2022-09-28T13:44:11.177Z,16.71
2022-09-28T13:47:29.939Z,16.63
2022-09-28T13:50:34.927Z,16.63
2022-09-28T13:53:53.226Z,16.83
2022-09-28T13:57:14.114Z,17.07
2022-09-28T14:00:21.923Z,17.13
2022-09-28T14:03:44.008Z,17.21
2022-09-28T14:06:55.623Z,17.22
2022-09-28T14:10:20.055Z,17.25
2022-09-28T14:13:43.505Z,17.23
2022-09-28T14:16:48.034Z,17.25
2022-09-28T14:20:09.490Z,17.11
2022-09-28T14:23:32.818Z,16.99
2022-09-28T14:26:43.614Z,16.81
2022-09-28T14:29:49.661Z,16.70
2022-09-28T14:32:59.705Z,16.72
2022-09-28T14:36:07.246Z,16.79
2022-09-28T14:39:38.420Z,16.79
2022-09-28T14:42:40.603Z,16.69
2022-09-28T14:45:45.475Z,16.60
2022-09-28T14:48:53.474Z,16.38
2022-09-28T14:52:01.129Z,16.26
2022-09-28T14:55:04.264Z,16.21
2022-09-28T14:58:11.209Z,16.05
2022-09-28T15:01:23.357Z,15.99
2022-09-28T15:04:33.411Z,15.98
2022-09-28T15:07:54.663Z,15.95
2022-09-28T15:10:58.633Z,15.91
2022-09-28T15:14:08.266Z,15.91
2022-09-28T15:17:11.542Z,15.88
2022-09-28T15:20:33.421Z,15.87
2022-09-28T15:23:37.612Z,15.89
2022-09-28T15:26:39.850Z,15.86
2022-09-28T15:29:42.496Z,15.90
2022-09-28T15:32:45.938Z,15.92
2022-09-28T15:35:59.223Z,15.85
2022-09-28T15:39:07.955Z,15.79
2022-09-28T15:42:11.478Z,15.73
2022-09-28T15:45:27.196Z,15.70
2022-09-28T15:48:49.832Z,15.73
2022-09-28T15:51:56.288Z,15.68
2022-09-28T15:55:01.630Z,15.66
2022-09-28T15:58:17.170Z,15.68
2022-09-28T16:01:24.197Z,15.65
2022-09-28T16:04:45.406Z,15.64
2022-09-28T16:07:56.522Z,15.56
2022-09-28T16:11:09.741Z,15.53
2022-09-28T16:14:23.092Z,15.32
2022-09-28T16:17:32.883Z,15.29
2022-09-28T16:20:37.548Z,15.17
2022-09-28T16:23:42.074Z,15.07
2022-09-28T16:26:46.028Z,14.97
2022-09-28T16:30:10.203Z,14.89
2022-09-28T16:33:35.370Z,14.83
2022-09-28T16:36:46.433Z,14.80
2022-09-28T16:39:48.632Z,14.71
2022-09-28T16:42:51.921Z,14.65
2022-09-28T16:46:02.058Z,14.60
2022-09-28T16:49:06.601Z,14.63
2022-09-28T16:52:12.724Z,14.60
2022-09-28T16:58:44.460Z,14.67
2022-09-28T17:01:51.688Z,14.66
2022-09-28T17:04:55.543Z,14.73
2022-09-28T17:08:02.562Z,14.71
2022-09-28T17:11:17.005Z,14.63
2022-09-28T17:14:23.770Z,14.59
2022-09-28T17:17:30.362Z,14.57
2022-09-28T17:20:34.072Z,14.48
2022-09-28T17:23:38.275Z,14.34
2022-09-28T17:26:42.837Z,14.18
2022-09-28T17:29:50.102Z,14.12
2022-09-28T17:32:53.406Z,14.13
2022-09-28T17:36:05.271Z,14.03
2022-09-28T17:39:13.002Z,13.93
2022-09-28T17:42:17.740Z,13.78
2022-09-28T17:45:20.234Z,13.63
2022-09-28T17:48:25.573Z,13.44
2022-09-28T17:51:30.698Z,13.21
2022-09-28T17:54:34.415Z,12.97
2022-09-28T17:57:38.235Z,12.80
2022-09-28T18:00:41.125Z,12.61
2022-09-28T18:03:43.169Z,12.48
2022-09-28T18:06:45.140Z,12.37
2022-09-28T18:09:47.250Z,12.21
2022-09-28T18:12:49.889Z,12.10
2022-09-28T18:15:52.918Z,11.97
2022-09-28T18:18:54.902Z,11.85
2022-09-28T18:21:58.255Z,11.87
2022-09-28T18:25:00.256Z,11.87
2022-09-28T18:28:02.214Z,11.83
2022-09-28T18:31:08.444Z,11.80
2022-09-28T18:34:11.212Z,11.80
2022-09-28T18:37:13.211Z,11.82
2022-09-28T18:40:15.314Z,11.90
2022-09-28T18:43:17.182Z,11.86
2022-09-28T18:46:19.400Z,11.94
2022-09-28T18:49:21.959Z,11.95
2022-09-28T18:52:23.851Z,11.90
2022-09-28T18:55:25.683Z,11.89
2022-09-28T18:58:28.378Z,11.91
2022-09-28T19:01:31.526Z,11.85
2022-09-28T19:04:33.700Z,11.79
2022-09-28T19:07:35.652Z,11.78
2022-09-28T19:10:37.601Z,11.77
2022-09-28T19:13:39.721Z,11.78
2022-09-28T19:16:42.631Z,11.75
2022-09-28T19:19:44.997Z,11.73
2022-09-28T19:22:49.097Z,11.75
2022-09-28T19:25:50.831Z,11.67
2022-09-28T19:28:52.986Z,11.67
2022-09-28T19:31:56.648Z,11.66
2022-09-28T19:34:59.464Z,11.68
2022-09-28T19:38:01.219Z,11.65
2022-09-28T19:41:08.015Z,11.68
2022-09-28T19:44:16.774Z,11.67
2022-09-28T19:47:19.926Z,11.68
2022-09-28T19:50:22.215Z,11.68
2022-09-28T19:53:25.481Z,11.66
2022-09-28T19:56:27.251Z,11.74
2022-09-28T19:59:29.035Z,11.75
2022-09-28T20:02:30.897Z,11.73
2022-09-28T20:05:32.716Z,11.69
2022-09-28T20:08:35.528Z,11.69
2022-09-28T20:11:37.565Z,11.64
2022-09-28T20:14:40.462Z,11.67
2022-09-28T20:17:42.485Z,11.73
2022-09-28T20:20:44.336Z,11.74
2022-09-28T20:23:46.915Z,11.73
2022-09-28T20:26:49.628Z,11.73
2022-09-28T20:29:51.395Z,11.66
2022-09-28T20:32:53.154Z,11.65
2022-09-28T20:35:56.028Z,11.61
2022-09-28T20:39:01.647Z,11.62
2022-09-28T20:42:03.458Z,11.59
2022-09-28T20:45:05.486Z,11.61
2022-09-28T20:48:07.285Z,11.58
2022-09-28T20:51:13.564Z,11.60
2022-09-28T20:54:15.464Z,11.68
2022-09-28T20:57:17.573Z,11.64
2022-09-28T21:00:19.507Z,11.65
2022-09-28T21:03:21.394Z,11.73
2022-09-28T21:06:24.912Z,11.75
2022-09-28T21:09:26.689Z,11.68
2022-09-28T21:12:29.869Z,11.56
2022-09-28T21:15:31.720Z,11.61
2022-09-28T21:18:33.729Z,11.68
2022-09-28T21:21:35.529Z,11.68
2022-09-28T21:24:37.605Z,11.71
2022-09-28T21:27:39.431Z,11.71
2022-09-28T21:30:42.053Z,11.73
2022-09-28T21:33:43.883Z,11.72
2022-09-28T21:36:46.969Z,11.68
2022-09-28T21:39:48.802Z,11.71
2022-09-28T21:42:50.935Z,11.71
2022-09-28T21:45:53.464Z,11.66
2022-09-28T21:48:55.522Z,11.59
2022-09-28T21:51:57.438Z,11.60
2022-09-28T21:54:59.348Z,11.52
2022-09-28T21:58:01.184Z,11.55
2022-09-28T22:01:07.876Z,11.55
2022-09-28T22:04:10.680Z,11.56
2022-09-28T22:07:12.625Z,11.52
2022-09-28T22:10:14.615Z,11.52
2022-09-28T22:13:17.274Z,11.45
2022-09-28T22:16:21.102Z,11.45
2022-09-28T22:19:23.129Z,11.50
2022-09-28T22:22:28.907Z,11.51
2022-09-28T22:25:31.173Z,11.50
2022-09-28T22:28:33.446Z,11.52
2022-09-28T22:31:36.962Z,11.50
2022-09-28T22:34:38.949Z,11.51
2022-09-28T22:37:40.993Z,11.59
2022-09-28T22:40:47.192Z,11.61
2022-09-28T22:43:50.127Z,11.65
2022-09-28T22:46:52.124Z,11.65
2022-09-28T22:49:54.444Z,11.63
2022-09-28T22:52:56.351Z,11.59
2022-09-28T22:55:59.246Z,11.58
2022-09-28T22:59:01.170Z,11.67
2022-09-28T23:02:03.108Z,11.72
2022-09-28T23:05:05.328Z,11.71
2022-09-28T23:08:07.194Z,11.68
2022-09-28T23:11:09.338Z,11.73
2022-09-28T23:14:11.800Z,11.73
2022-09-28T23:17:13.669Z,11.70
2022-09-28T23:20:15.563Z,11.72
2022-09-28T23:23:17.686Z,11.71
2022-09-28T23:26:21.000Z,11.68
2022-09-28T23:29:22.973Z,11.66
2022-09-28T23:32:28.535Z,11.69
2022-09-28T23:35:33.841Z,11.69
2022-09-28T23:38:35.760Z,11.69
2022-09-28T23:41:37.956Z,11.71
2022-09-28T23:44:39.819Z,11.75
2022-09-28T23:47:41.912Z,11.73
2022-09-28T23:50:45.062Z,11.78
2022-09-28T23:53:47.099Z,11.84
2022-09-28T23:56:49.050Z,11.85
2022-09-28T23:59:51.213Z,11.84
